sensor_id;sensor_type;location;lat;lon;timestamp;P1;durP1;ratioP1;P2;durP2;ratioP2
24557;SDS011;12726;49.148;8.582;2022-10-31T00:00:56;11.13;;;6.10;;
24557;SDS011;12726;49.148;8.582;2022-10-31T00:03:42;8.98;;;6.10;;
24557;SDS011;12726;49.148;8.582;2022-10-31T00:06:27;9.35;;;5.68;;
24557;SDS011;12726;49.148;8.582;2022-10-31T00:09:14;9.85;;;6.03;;
24557;SDS011;12726;49.148;8.582;2022-10-31T00:12:00;8.93;;;6.68;;
24557;SDS011;12726;49.148;8.582;2022-10-31T00:14:45;7.97;;;6.25;;
24557;SDS011;12726;49.148;8.582;2022-10-31T00:17:31;7.05;;;5.07;;
24557;SDS011;12726;49.148;8.582;2022-10-31T00:20:19;8.65;;;6.05;;
24557;SDS011;12726;49.148;8.582;2022-10-31T00:23:05;14.63;;;6.18;;
24557;SDS011;12726;49.148;8.582;2022-10-31T00:25:53;8.80;;;5.82;;
24557;SDS011;12726;49.148;8.582;2022-10-31T00:28:38;8.70;;;6.18;;
24557;SDS011;12726;49.148;8.582;2022-10-31T00:31:23;10.43;;;6.18;;
24557;SDS011;12726;49.148;8.582;2022-10-31T00:34:09;7.80;;;5.75;;
24557;SDS011;12726;49.148;8.582;2022-10-31T00:36:54;10.52;;;5.78;;
24557;SDS011;12726;49.148;8.582;2022-10-31T00:39:39;8.23;;;5.53;;
24557;SDS011;12726;49.148;8.582;2022-10-31T00:42:26;7.75;;;5.10;;
24557;SDS011;12726;49.148;8.582;2022-10-31T00:45:12;11.43;;;5.45;;
24557;SDS011;12726;49.148;8.582;2022-10-31T00:47:57;6.68;;;5.38;;
24557;SDS011;12726;49.148;8.582;2022-10-31T00:50:42;9.00;;;5.07;;
24557;SDS011;12726;49.148;8.582;2022-10-31T00:53:28;9.73;;;5.82;;
24557;SDS011;12726;49.148;8.582;2022-10-31T00:56:13;8.73;;;6.10;;
24557;SDS011;12726;49.148;8.582;2022-10-31T00:59:00;9.95;;;5.18;;
24557;SDS011;12726;49.148;8.582;2022-10-31T01:01:45;8.40;;;5.35;;
24557;SDS011;12726;49.148;8.582;2022-10-31T01:04:31;8.98;;;5.20;;
24557;SDS011;12726;49.148;8.582;2022-10-31T01:07:16;8.20;;;5.40;;
24557;SDS011;12726;49.148;8.582;2022-10-31T01:10:01;11.25;;;5.43;;
24557;SDS011;12726;49.148;8.582;2022-10-31T01:12:47;6.75;;;4.72;;
24557;SDS011;12726;49.148;8.582;2022-10-31T01:15:35;11.45;;;5.45;;
24557;SDS011;12726;49.148;8.582;2022-10-31T01:18:20;7.40;;;5.07;;
24557;SDS011;12726;49.148;8.582;2022-10-31T01:21:06;6.18;;;4.40;;
24557;SDS011;12726;49.148;8.582;2022-10-31T01:23:53;8.98;;;4.72;;
24557;SDS011;12726;49.148;8.582;2022-10-31T01:26:39;9.23;;;5.63;;
24557;SDS011;12726;49.148;8.582;2022-10-31T01:29:24;10.48;;;5.25;;
24557;SDS011;12726;49.148;8.582;2022-10-31T01:32:11;6.32;;;4.63;;
24557;SDS011;12726;49.148;8.582;2022-10-31T01:34:56;8.85;;;5.53;;
24557;SDS011;12726;49.148;8.582;2022-10-31T01:37:42;7.80;;;5.20;;
24557;SDS011;12726;49.148;8.582;2022-10-31T01:40:28;9.15;;;4.97;;
24557;SDS011;12726;49.148;8.582;2022-10-31T01:43:14;8.88;;;5.15;;
24557;SDS011;12726;49.148;8.582;2022-10-31T01:45:59;9.75;;;5.00;;
24557;SDS011;12726;49.148;8.582;2022-10-31T01:48:46;7.68;;;5.13;;
24557;SDS011;12726;49.148;8.582;2022-10-31T01:51:33;8.20;;;4.57;;
24557;SDS011;12726;49.148;8.582;2022-10-31T01:54:21;7.32;;;5.30;;
24557;SDS011;12726;49.148;8.582;2022-10-31T01:57:11;6.93;;;4.93;;
24557;SDS011;12726;49.148;8.582;2022-10-31T01:59:59;8.98;;;5.07;;
24557;SDS011;12726;49.148;8.582;2022-10-31T02:02:48;8.70;;;5.68;;
24557;SDS011;12726;49.148;8.582;2022-10-31T02:05:36;7.20;;;5.18;;
24557;SDS011;12726;49.148;8.582;2022-10-31T02:08:23;8.88;;;5.40;;
24557;SDS011;12726;49.148;8.582;2022-10-31T02:11:12;6.10;;;4.68;;
24557;SDS011;12726;49.148;8.582;2022-10-31T02:13:58;5.28;;;4.78;;
24557;SDS011;12726;49.148;8.582;2022-10-31T02:16:46;6.93;;;4.82;;
24557;SDS011;12726;49.148;8.582;2022-10-31T02:19:33;9.18;;;5.28;;
24557;SDS011;12726;49.148;8.582;2022-10-31T02:22:26;8.75;;;5.35;;
24557;SDS011;12726;49.148;8.582;2022-10-31T02:25:21;7.53;;;5.15;;
24557;SDS011;12726;49.148;8.582;2022-10-31T02:28:31;7.30;;;5.20;;
24557;SDS011;12726;49.148;8.582;2022-10-31T02:31:32;8.57;;;4.78;;
24557;SDS011;12726;49.148;8.582;2022-10-31T02:34:26;8.63;;;4.50;;
24557;SDS011;12726;49.148;8.582;2022-10-31T02:37:20;10.35;;;5.00;;
24557;SDS011;12726;49.148;8.582;2022-10-31T02:40:17;7.57;;;4.68;;
24557;SDS011;12726;49.148;8.582;2022-10-31T02:43:11;6.22;;;3.97;;
24557;SDS011;12726;49.148;8.582;2022-10-31T02:46:06;6.72;;;4.65;;
24557;SDS011;12726;49.148;8.582;2022-10-31T02:48:59;6.38;;;4.82;;
24557;SDS011;12726;49.148;8.582;2022-10-31T02:51:51;8.18;;;4.93;;
24557;SDS011;12726;49.148;8.582;2022-10-31T02:54:36;7.50;;;4.90;;
24557;SDS011;12726;49.148;8.582;2022-10-31T02:57:22;7.22;;;4.43;;
24557;SDS011;12726;49.148;8.582;2022-10-31T03:00:10;7.17;;;4.33;;
24557;SDS011;12726;49.148;8.582;2022-10-31T03:02:57;4.85;;;3.72;;
24557;SDS011;12726;49.148;8.582;2022-10-31T03:05:53;5.93;;;4.28;;
24557;SDS011;12726;49.148;8.582;2022-10-31T03:08:46;8.05;;;4.55;;
24557;SDS011;12726;49.148;8.582;2022-10-31T03:11:42;9.02;;;3.95;;
24557;SDS011;12726;49.148;8.582;2022-10-31T03:14:34;7.13;;;4.30;;
24557;SDS011;12726;49.148;8.582;2022-10-31T03:20:13;6.45;;;4.60;;
24557;SDS011;12726;49.148;8.582;2022-10-31T03:23:03;8.57;;;4.18;;
24557;SDS011;12726;49.148;8.582;2022-10-31T03:25:52;6.95;;;4.50;;
24557;SDS011;12726;49.148;8.582;2022-10-31T03:28:40;5.35;;;3.67;;
24557;SDS011;12726;49.148;8.582;2022-10-31T03:31:31;5.50;;;4.00;;
24557;SDS011;12726;49.148;8.582;2022-10-31T03:34:20;4.95;;;3.58;;
24557;SDS011;12726;49.148;8.582;2022-10-31T03:37:07;8.77;;;4.20;;
24557;SDS011;12726;49.148;8.582;2022-10-31T03:39:58;6.32;;;4.13;;
24557;SDS011;12726;49.148;8.582;2022-10-31T03:42:49;9.93;;;4.15;;
24557;SDS011;12726;49.148;8.582;2022-10-31T03:45:39;6.53;;;4.22;;
24557;SDS011;12726;49.148;8.582;2022-10-31T03:48:27;8.02;;;3.47;;
24557;SDS011;12726;49.148;8.582;2022-10-31T03:51:14;4.90;;;3.53;;
24557;SDS011;12726;49.148;8.582;2022-10-31T03:54:07;6.47;;;3.72;;
24557;SDS011;12726;49.148;8.582;2022-10-31T03:56:59;6.10;;;3.35;;
24557;SDS011;12726;49.148;8.582;2022-10-31T03:59:51;5.80;;;3.47;;
24557;SDS011;12726;49.148;8.582;2022-10-31T04:02:41;4.68;;;3.20;;
24557;SDS011;12726;49.148;8.582;2022-10-31T04:05:31;11.23;;;4.03;;
24557;SDS011;12726;49.148;8.582;2022-10-31T04:08:17;6.10;;;3.92;;
24557;SDS011;12726;49.148;8.582;2022-10-31T04:11:07;8.13;;;4.00;;
24557;SDS011;12726;49.148;8.582;2022-10-31T04:13:56;6.15;;;3.78;;
24557;SDS011;12726;49.148;8.582;2022-10-31T04:16:43;5.00;;;3.80;;
24557;SDS011;12726;49.148;8.582;2022-10-31T04:19:29;6.88;;;4.00;;
24557;SDS011;12726;49.148;8.582;2022-10-31T04:22:14;5.85;;;3.80;;
24557;SDS011;12726;49.148;8.582;2022-10-31T04:24:59;5.13;;;3.15;;
24557;SDS011;12726;49.148;8.582;2022-10-31T04:27:44;5.10;;;3.75;;
24557;SDS011;12726;49.148;8.582;2022-10-31T04:30:31;6.97;;;3.65;;
24557;SDS011;12726;49.148;8.582;2022-10-31T04:33:16;6.03;;;3.92;;
24557;SDS011;12726;49.148;8.582;2022-10-31T04:36:02;6.97;;;3.58;;
24557;SDS011;12726;49.148;8.582;2022-10-31T04:38:48;7.03;;;3.80;;
24557;SDS011;12726;49.148;8.582;2022-10-31T04:41:33;6.38;;;3.90;;
24557;SDS011;12726;49.148;8.582;2022-10-31T04:44:19;7.72;;;4.40;;
24557;SDS011;12726;49.148;8.582;2022-10-31T04:47:06;8.27;;;4.20;;
24557;SDS011;12726;49.148;8.582;2022-10-31T04:49:51;7.15;;;4.25;;
24557;SDS011;12726;49.148;8.582;2022-10-31T04:52:38;8.30;;;4.75;;
24557;SDS011;12726;49.148;8.582;2022-10-31T04:55:24;7.45;;;3.95;;
24557;SDS011;12726;49.148;8.582;2022-10-31T04:58:09;10.90;;;4.70;;
24557;SDS011;12726;49.148;8.582;2022-10-31T05:00:55;6.05;;;4.20;;
24557;SDS011;12726;49.148;8.582;2022-10-31T05:03:42;6.38;;;4.50;;
24557;SDS011;12726;49.148;8.582;2022-10-31T05:06:27;7.47;;;4.40;;
24557;SDS011;12726;49.148;8.582;2022-10-31T05:09:12;6.53;;;4.43;;
24557;SDS011;12726;49.148;8.582;2022-10-31T05:11:58;7.22;;;4.32;;
24557;SDS011;12726;49.148;8.582;2022-10-31T05:14:43;6.32;;;4.60;;
24557;SDS011;12726;49.148;8.582;2022-10-31T05:17:29;8.98;;;4.68;;
24557;SDS011;12726;49.148;8.582;2022-10-31T05:20:17;7.88;;;4.25;;
24557;SDS011;12726;49.148;8.582;2022-10-31T05:23:03;6.10;;;3.80;;
24557;SDS011;12726;49.148;8.582;2022-10-31T05:25:49;5.85;;;4.65;;
24557;SDS011;12726;49.148;8.582;2022-10-31T05:28:34;8.20;;;4.80;;
24557;SDS011;12726;49.148;8.582;2022-10-31T05:31:19;8.35;;;4.25;;
24557;SDS011;12726;49.148;8.582;2022-10-31T05:34:05;4.88;;;3.80;;
24557;SDS011;12726;49.148;8.582;2022-10-31T05:36:51;6.13;;;4.05;;
24557;SDS011;12726;49.148;8.582;2022-10-31T05:39:36;5.57;;;4.10;;
24557;SDS011;12726;49.148;8.582;2022-10-31T05:42:22;5.95;;;3.97;;
24557;SDS011;12726;49.148;8.582;2022-10-31T05:45:07;6.10;;;4.35;;
24557;SDS011;12726;49.148;8.582;2022-10-31T05:47:54;8.38;;;3.83;;
24557;SDS011;12726;49.148;8.582;2022-10-31T05:50:41;4.53;;;3.67;;
24557;SDS011;12726;49.148;8.582;2022-10-31T05:53:27;5.85;;;4.35;;
24557;SDS011;12726;49.148;8.582;2022-10-31T05:56:12;6.75;;;3.97;;
24557;SDS011;12726;49.148;8.582;2022-10-31T05:58:58;6.10;;;4.93;;
24557;SDS011;12726;49.148;8.582;2022-10-31T06:01:43;7.53;;;4.30;;
24557;SDS011;12726;49.148;8.582;2022-10-31T06:04:28;7.80;;;4.03;;
24557;SDS011;12726;49.148;8.582;2022-10-31T06:07:14;7.55;;;4.38;;
24557;SDS011;12726;49.148;8.582;2022-10-31T06:10:01;7.07;;;4.80;;
24557;SDS011;12726;49.148;8.582;2022-10-31T06:12:48;6.35;;;4.50;;
24557;SDS011;12726;49.148;8.582;2022-10-31T06:15:33;7.00;;;4.43;;
24557;SDS011;12726;49.148;8.582;2022-10-31T06:18:18;5.05;;;4.30;;
24557;SDS011;12726;49.148;8.582;2022-10-31T06:21:04;6.00;;;4.88;;
24557;SDS011;12726;49.148;8.582;2022-10-31T06:23:49;7.47;;;5.43;;
24557;SDS011;12726;49.148;8.582;2022-10-31T06:26:36;7.43;;;5.43;;
24557;SDS011;12726;49.148;8.582;2022-10-31T06:29:21;8.85;;;5.70;;
24557;SDS011;12726;49.148;8.582;2022-10-31T06:32:08;6.88;;;4.90;;
24557;SDS011;12726;49.148;8.582;2022-10-31T06:34:55;6.75;;;4.47;;
24557;SDS011;12726;49.148;8.582;2022-10-31T06:37:40;9.20;;;4.28;;
24557;SDS011;12726;49.148;8.582;2022-10-31T06:40:26;6.25;;;4.78;;
24557;SDS011;12726;49.148;8.582;2022-10-31T06:43:12;7.10;;;5.55;;
24557;SDS011;12726;49.148;8.582;2022-10-31T06:46:01;8.32;;;5.25;;
24557;SDS011;12726;49.148;8.582;2022-10-31T06:48:47;6.35;;;4.57;;
24557;SDS011;12726;49.148;8.582;2022-10-31T06:51:33;6.13;;;5.15;;
24557;SDS011;12726;49.148;8.582;2022-10-31T06:54:18;10.63;;;5.35;;
24557;SDS011;12726;49.148;8.582;2022-10-31T06:57:03;9.60;;;6.05;;
24557;SDS011;12726;49.148;8.582;2022-10-31T06:59:50;7.93;;;5.75;;
24557;SDS011;12726;49.148;8.582;2022-10-31T07:02:35;9.45;;;4.53;;
24557;SDS011;12726;49.148;8.582;2022-10-31T07:05:21;5.85;;;4.57;;
24557;SDS011;12726;49.148;8.582;2022-10-31T07:08:07;10.30;;;4.93;;
24557;SDS011;12726;49.148;8.582;2022-10-31T07:10:55;6.22;;;4.15;;
24557;SDS011;12726;49.148;8.582;2022-10-31T07:13:41;7.53;;;4.20;;
24557;SDS011;12726;49.148;8.582;2022-10-31T07:16:28;4.93;;;3.95;;
24557;SDS011;12726;49.148;8.582;2022-10-31T07:19:13;4.63;;;3.70;;
24557;SDS011;12726;49.148;8.582;2022-10-31T07:21:58;5.45;;;3.70;;
24557;SDS011;12726;49.148;8.582;2022-10-31T07:24:43;6.93;;;4.13;;
24557;SDS011;12726;49.148;8.582;2022-10-31T07:27:29;5.53;;;4.07;;
24557;SDS011;12726;49.148;8.582;2022-10-31T07:30:20;6.13;;;4.15;;
24557;SDS011;12726;49.148;8.582;2022-10-31T07:33:07;6.70;;;4.55;;
24557;SDS011;12726;49.148;8.582;2022-10-31T07:35:53;6.05;;;3.97;;
24557;SDS011;12726;49.148;8.582;2022-10-31T07:38:38;5.25;;;3.60;;
24557;SDS011;12726;49.148;8.582;2022-10-31T07:41:24;5.03;;;3.25;;
24557;SDS011;12726;49.148;8.582;2022-10-31T07:44:09;5.72;;;3.10;;
24557;SDS011;12726;49.148;8.582;2022-10-31T07:46:54;4.32;;;3.50;;
24557;SDS011;12726;49.148;8.582;2022-10-31T07:49:41;6.55;;;3.28;;
24557;SDS011;12726;49.148;8.582;2022-10-31T07:52:26;5.38;;;2.95;;
24557;SDS011;12726;49.148;8.582;2022-10-31T07:55:12;4.13;;;2.90;;
24557;SDS011;12726;49.148;8.582;2022-10-31T07:57:58;5.78;;;3.28;;
24557;SDS011;12726;49.148;8.582;2022-10-31T08:00:44;5.53;;;3.13;;
24557;SDS011;12726;49.148;8.582;2022-10-31T08:03:31;4.57;;;3.05;;
24557;SDS011;12726;49.148;8.582;2022-10-31T08:06:18;4.95;;;3.28;;
24557;SDS011;12726;49.148;8.582;2022-10-31T08:09:03;6.90;;;3.85;;
24557;SDS011;12726;49.148;8.582;2022-10-31T08:11:49;4.63;;;3.50;;
24557;SDS011;12726;49.148;8.582;2022-10-31T08:14:34;5.88;;;3.30;;
24557;SDS011;12726;49.148;8.582;2022-10-31T08:17:19;3.92;;;2.30;;
24557;SDS011;12726;49.148;8.582;2022-10-31T08:20:05;3.67;;;3.20;;
24557;SDS011;12726;49.148;8.582;2022-10-31T08:22:56;6.28;;;3.40;;
24557;SDS011;12726;49.148;8.582;2022-10-31T08:25:42;6.13;;;2.83;;
24557;SDS011;12726;49.148;8.582;2022-10-31T08:28:30;4.93;;;2.80;;
24557;SDS011;12726;49.148;8.582;2022-10-31T08:31:16;3.80;;;2.83;;
24557;SDS011;12726;49.148;8.582;2022-10-31T08:34:01;3.78;;;3.20;;
24557;SDS011;12726;49.148;8.582;2022-10-31T08:36:46;3.60;;;3.08;;
24557;SDS011;12726;49.148;8.582;2022-10-31T08:39:33;4.07;;;2.70;;
24557;SDS011;12726;49.148;8.582;2022-10-31T08:42:18;4.53;;;3.45;;
24557;SDS011;12726;49.148;8.582;2022-10-31T08:45:04;9.27;;;3.38;;
24557;SDS011;12726;49.148;8.582;2022-10-31T08:47:49;4.03;;;3.25;;
24557;SDS011;12726;49.148;8.582;2022-10-31T08:50:35;4.07;;;3.65;;
24557;SDS011;12726;49.148;8.582;2022-10-31T08:53:20;3.88;;;2.60;;
24557;SDS011;12726;49.148;8.582;2022-10-31T08:56:07;5.10;;;3.80;;
24557;SDS011;12726;49.148;8.582;2022-10-31T08:58:52;7.13;;;3.85;;
24557;SDS011;12726;49.148;8.582;2022-10-31T09:01:38;7.00;;;3.70;;
24557;SDS011;12726;49.148;8.582;2022-10-31T09:04:23;5.28;;;3.13;;
24557;SDS011;12726;49.148;8.582;2022-10-31T09:07:08;6.95;;;3.65;;
24557;SDS011;12726;49.148;8.582;2022-10-31T09:09:54;3.83;;;3.42;;
24557;SDS011;12726;49.148;8.582;2022-10-31T09:12:41;6.55;;;3.08;;
24557;SDS011;12726;49.148;8.582;2022-10-31T09:15:26;5.00;;;3.25;;
24557;SDS011;12726;49.148;8.582;2022-10-31T09:18:13;8.27;;;3.70;;
24557;SDS011;12726;49.148;8.582;2022-10-31T09:21:00;5.00;;;3.10;;
24557;SDS011;12726;49.148;8.582;2022-10-31T09:23:45;6.85;;;3.53;;
24557;SDS011;12726;49.148;8.582;2022-10-31T09:26:30;8.45;;;3.60;;
24557;SDS011;12726;49.148;8.582;2022-10-31T09:29:17;6.47;;;3.70;;
24557;SDS011;12726;49.148;8.582;2022-10-31T09:32:02;7.07;;;3.25;;
24557;SDS011;12726;49.148;8.582;2022-10-31T09:34:47;6.65;;;3.65;;
24557;SDS011;12726;49.148;8.582;2022-10-31T09:37:33;8.35;;;3.53;;
24557;SDS011;12726;49.148;8.582;2022-10-31T09:40:18;5.13;;;3.33;;
24557;SDS011;12726;49.148;8.582;2022-10-31T09:43:06;5.38;;;3.50;;
24557;SDS011;12726;49.148;8.582;2022-10-31T09:46:02;6.75;;;3.33;;
24557;SDS011;12726;49.148;8.582;2022-10-31T09:48:55;5.65;;;3.15;;
24557;SDS011;12726;49.148;8.582;2022-10-31T09:51:57;5.05;;;4.00;;
24557;SDS011;12726;49.148;8.582;2022-10-31T09:54:49;5.88;;;3.25;;
24557;SDS011;12726;49.148;8.582;2022-10-31T09:57:37;5.50;;;3.05;;
24557;SDS011;12726;49.148;8.582;2022-10-31T10:00:22;6.15;;;3.22;;
24557;SDS011;12726;49.148;8.582;2022-10-31T10:03:12;6.05;;;3.50;;
24557;SDS011;12726;49.148;8.582;2022-10-31T10:06:18;7.60;;;3.60;;
24557;SDS011;12726;49.148;8.582;2022-10-31T10:09:07;5.45;;;3.88;;
24557;SDS011;12726;49.148;8.582;2022-10-31T10:11:57;7.65;;;3.63;;
24557;SDS011;12726;49.148;8.582;2022-10-31T10:14:57;6.22;;;3.85;;
24557;SDS011;12726;49.148;8.582;2022-10-31T10:17:53;6.75;;;3.50;;
24557;SDS011;12726;49.148;8.582;2022-10-31T10:20:54;7.38;;;3.97;;
24557;SDS011;12726;49.148;8.582;2022-10-31T10:23:50;6.22;;;3.55;;
24557;SDS011;12726;49.148;8.582;2022-10-31T10:26:43;5.50;;;3.40;;
24557;SDS011;12726;49.148;8.582;2022-10-31T10:29:39;8.65;;;3.55;;
24557;SDS011;12726;49.148;8.582;2022-10-31T10:32:31;5.18;;;3.55;;
24557;SDS011;12726;49.148;8.582;2022-10-31T10:35:27;6.50;;;3.78;;
24557;SDS011;12726;49.148;8.582;2022-10-31T10:38:19;9.02;;;4.10;;
24557;SDS011;12726;49.148;8.582;2022-10-31T10:41:14;6.80;;;4.40;;
24557;SDS011;12726;49.148;8.582;2022-10-31T10:44:01;4.30;;;3.50;;
24557;SDS011;12726;49.148;8.582;2022-10-31T10:46:55;7.22;;;3.80;;
24557;SDS011;12726;49.148;8.582;2022-10-31T10:50:01;7.32;;;3.97;;
24557;SDS011;12726;49.148;8.582;2022-10-31T10:52:53;7.53;;;3.72;;
24557;SDS011;12726;49.148;8.582;2022-10-31T10:55:47;6.68;;;3.67;;
24557;SDS011;12726;49.148;8.582;2022-10-31T10:58:40;8.90;;;4.45;;
24557;SDS011;12726;49.148;8.582;2022-10-31T11:01:27;6.07;;;3.80;;
24557;SDS011;12726;49.148;8.582;2022-10-31T11:04:18;7.50;;;4.53;;
24557;SDS011;12726;49.148;8.582;2022-10-31T11:07:10;8.32;;;4.35;;
24557;SDS011;12726;49.148;8.582;2022-10-31T11:10:02;5.70;;;3.50;;
24557;SDS011;12726;49.148;8.582;2022-10-31T11:16:03;8.82;;;4.25;;
24557;SDS011;12726;49.148;8.582;2022-10-31T11:18:50;6.80;;;4.35;;
24557;SDS011;12726;49.148;8.582;2022-10-31T11:21:36;7.28;;;4.22;;
24557;SDS011;12726;49.148;8.582;2022-10-31T11:24:22;6.88;;;3.80;;
24557;SDS011;12726;49.148;8.582;2022-10-31T11:27:12;7.65;;;4.18;;
24557;SDS011;12726;49.148;8.582;2022-10-31T11:30:09;5.75;;;4.20;;
24557;SDS011;12726;49.148;8.582;2022-10-31T11:32:56;9.57;;;4.53;;
24557;SDS011;12726;49.148;8.582;2022-10-31T11:35:42;10.20;;;7.60;;
24557;SDS011;12726;49.148;8.582;2022-10-31T11:38:30;9.18;;;4.95;;
24557;SDS011;12726;49.148;8.582;2022-10-31T11:41:19;10.27;;;4.30;;
24557;SDS011;12726;49.148;8.582;2022-10-31T11:44:11;5.90;;;4.28;;
24557;SDS011;12726;49.148;8.582;2022-10-31T11:47:01;9.25;;;4.57;;
24557;SDS011;12726;49.148;8.582;2022-10-31T11:49:48;9.70;;;4.50;;
24557;SDS011;12726;49.148;8.582;2022-10-31T11:52:36;7.65;;;4.07;;
24557;SDS011;12726;49.148;8.582;2022-10-31T11:55:31;8.95;;;4.35;;
24557;SDS011;12726;49.148;8.582;2022-10-31T11:58:22;7.72;;;5.40;;
24557;SDS011;12726;49.148;8.582;2022-10-31T12:01:21;9.70;;;4.13;;
24557;SDS011;12726;49.148;8.582;2022-10-31T12:04:10;8.63;;;4.30;;
24557;SDS011;12726;49.148;8.582;2022-10-31T12:06:57;12.00;;;5.75;;
24557;SDS011;12726;49.148;8.582;2022-10-31T12:09:43;10.48;;;4.22;;
24557;SDS011;12726;49.148;8.582;2022-10-31T12:12:33;9.20;;;4.47;;
24557;SDS011;12726;49.148;8.582;2022-10-31T12:15:30;9.25;;;4.43;;
24557;SDS011;12726;49.148;8.582;2022-10-31T12:18:35;8.02;;;4.85;;
24557;SDS011;12726;49.148;8.582;2022-10-31T12:25:05;10.70;;;5.40;;
24557;SDS011;12726;49.148;8.582;2022-10-31T12:28:01;9.23;;;4.97;;
24557;SDS011;12726;49.148;8.582;2022-10-31T12:30:58;10.02;;;4.90;;
24557;SDS011;12726;49.148;8.582;2022-10-31T12:33:56;11.25;;;5.15;;
24557;SDS011;12726;49.148;8.582;2022-10-31T12:36:50;9.88;;;4.88;;
24557;SDS011;12726;49.148;8.582;2022-10-31T12:42:38;10.52;;;4.70;;
24557;SDS011;12726;49.148;8.582;2022-10-31T12:45:39;10.23;;;5.20;;
24557;SDS011;12726;49.148;8.582;2022-10-31T12:51:48;8.60;;;4.53;;
24557;SDS011;12726;49.148;8.582;2022-10-31T12:54:52;9.32;;;4.82;;
24557;SDS011;12726;49.148;8.582;2022-10-31T12:57:48;11.23;;;4.97;;
24557;SDS011;12726;49.148;8.582;2022-10-31T13:00:40;11.07;;;5.40;;
24557;SDS011;12726;49.148;8.582;2022-10-31T13:03:32;16.97;;;5.50;;
24557;SDS011;12726;49.148;8.582;2022-10-31T13:06:22;9.93;;;5.72;;
24557;SDS011;12726;49.148;8.582;2022-10-31T13:09:11;9.23;;;5.43;;
24557;SDS011;12726;49.148;8.582;2022-10-31T13:12:02;10.60;;;5.35;;
24557;SDS011;12726;49.148;8.582;2022-10-31T13:14:53;11.75;;;4.95;;
24557;SDS011;12726;49.148;8.582;2022-10-31T13:17:43;7.40;;;4.68;;
24557;SDS011;12726;49.148;8.582;2022-10-31T13:20:32;12.00;;;5.10;;
24557;SDS011;12726;49.148;8.582;2022-10-31T13:23:21;12.05;;;4.60;;
24557;SDS011;12726;49.148;8.582;2022-10-31T13:26:13;11.50;;;5.50;;
24557;SDS011;12726;49.148;8.582;2022-10-31T13:29:08;8.75;;;5.20;;
24557;SDS011;12726;49.148;8.582;2022-10-31T13:32:04;8.32;;;4.75;;
24557;SDS011;12726;49.148;8.582;2022-10-31T13:34:51;10.23;;;5.53;;
24557;SDS011;12726;49.148;8.582;2022-10-31T13:37:40;13.52;;;6.00;;
24557;SDS011;12726;49.148;8.582;2022-10-31T13:40:33;11.02;;;6.15;;
24557;SDS011;12726;49.148;8.582;2022-10-31T13:43:25;11.40;;;5.43;;
24557;SDS011;12726;49.148;8.582;2022-10-31T13:46:24;9.45;;;5.35;;
24557;SDS011;12726;49.148;8.582;2022-10-31T13:52:24;9.93;;;5.18;;
24557;SDS011;12726;49.148;8.582;2022-10-31T13:58:22;9.48;;;4.90;;
24557;SDS011;12726;49.148;8.582;2022-10-31T14:01:14;7.60;;;4.82;;
24557;SDS011;12726;49.148;8.582;2022-10-31T14:04:04;8.70;;;5.00;;
24557;SDS011;12726;49.148;8.582;2022-10-31T14:07:04;13.43;;;5.50;;
24557;SDS011;12726;49.148;8.582;2022-10-31T14:09:52;10.93;;;4.68;;
24557;SDS011;12726;49.148;8.582;2022-10-31T14:12:41;8.77;;;4.90;;
24557;SDS011;12726;49.148;8.582;2022-10-31T14:15:27;8.18;;;4.53;;
24557;SDS011;12726;49.148;8.582;2022-10-31T14:18:18;10.63;;;4.70;;
24557;SDS011;12726;49.148;8.582;2022-10-31T14:21:25;13.85;;;5.35;;
24557;SDS011;12726;49.148;8.582;2022-10-31T14:24:13;15.00;;;4.70;;
24557;SDS011;12726;49.148;8.582;2022-10-31T14:27:00;9.23;;;5.18;;
24557;SDS011;12726;49.148;8.582;2022-10-31T14:29:47;11.20;;;5.65;;
24557;SDS011;12726;49.148;8.582;2022-10-31T14:32:32;14.05;;;5.80;;
24557;SDS011;12726;49.148;8.582;2022-10-31T14:35:19;10.15;;;5.07;;
24557;SDS011;12726;49.148;8.582;2022-10-31T14:38:20;7.93;;;5.10;;
24557;SDS011;12726;49.148;8.582;2022-10-31T14:41:30;8.95;;;4.95;;
24557;SDS011;12726;49.148;8.582;2022-10-31T14:44:43;10.00;;;5.77;;
24557;SDS011;12726;49.148;8.582;2022-10-31T14:47:42;6.32;;;4.25;;
24557;SDS011;12726;49.148;8.582;2022-10-31T14:50:39;14.68;;;4.95;;
24557;SDS011;12726;49.148;8.582;2022-10-31T14:53:30;8.43;;;4.82;;
24557;SDS011;12726;49.148;8.582;2022-10-31T14:56:20;11.57;;;5.45;;
24557;SDS011;12726;49.148;8.582;2022-10-31T14:59:11;14.98;;;5.35;;
24557;SDS011;12726;49.148;8.582;2022-10-31T15:02:01;9.80;;;4.78;;
24557;SDS011;12726;49.148;8.582;2022-10-31T15:04:54;18.95;;;5.05;;
24557;SDS011;12726;49.148;8.582;2022-10-31T15:07:48;9.00;;;4.28;;
24557;SDS011;12726;49.148;8.582;2022-10-31T15:10:37;13.93;;;5.43;;
24557;SDS011;12726;49.148;8.582;2022-10-31T15:13:23;7.07;;;4.40;;
24557;SDS011;12726;49.148;8.582;2022-10-31T15:16:08;8.52;;;4.22;;
24557;SDS011;12726;49.148;8.582;2022-10-31T15:18:56;10.93;;;4.65;;
24557;SDS011;12726;49.148;8.582;2022-10-31T15:21:44;15.38;;;5.43;;
24557;SDS011;12726;49.148;8.582;2022-10-31T15:24:32;10.52;;;5.18;;
24557;SDS011;12726;49.148;8.582;2022-10-31T15:27:21;11.02;;;5.60;;
24557;SDS011;12726;49.148;8.582;2022-10-31T15:30:15;10.32;;;5.50;;
24557;SDS011;12726;49.148;8.582;2022-10-31T15:33:02;14.50;;;6.07;;
24557;SDS011;12726;49.148;8.582;2022-10-31T15:35:54;9.27;;;5.25;;
24557;SDS011;12726;49.148;8.582;2022-10-31T15:38:40;12.13;;;6.30;;
24557;SDS011;12726;49.148;8.582;2022-10-31T15:41:29;10.45;;;5.28;;
24557;SDS011;12726;49.148;8.582;2022-10-31T15:47:12;11.38;;;5.45;;
24557;SDS011;12726;49.148;8.582;2022-10-31T15:50:01;12.93;;;6.40;;
24557;SDS011;12726;49.148;8.582;2022-10-31T15:52:49;13.63;;;6.00;;
24557;SDS011;12726;49.148;8.582;2022-10-31T15:55:38;10.02;;;6.43;;
24557;SDS011;12726;49.148;8.582;2022-10-31T15:58:33;12.80;;;5.40;;
24557;SDS011;12726;49.148;8.582;2022-10-31T16:01:29;11.73;;;6.00;;
24557;SDS011;12726;49.148;8.582;2022-10-31T16:04:20;16.17;;;6.60;;
24557;SDS011;12726;49.148;8.582;2022-10-31T16:07:12;15.02;;;5.97;;
24557;SDS011;12726;49.148;8.582;2022-10-31T16:09:59;11.02;;;6.18;;
24557;SDS011;12726;49.148;8.582;2022-10-31T16:12:45;13.65;;;6.15;;
24557;SDS011;12726;49.148;8.582;2022-10-31T16:15:30;15.80;;;7.78;;
24557;SDS011;12726;49.148;8.582;2022-10-31T16:18:18;12.13;;;6.63;;
24557;SDS011;12726;49.148;8.582;2022-10-31T16:21:03;9.43;;;5.97;;
24557;SDS011;12726;49.148;8.582;2022-10-31T16:23:50;13.60;;;7.53;;
24557;SDS011;12726;49.148;8.582;2022-10-31T16:26:40;13.93;;;6.15;;
24557;SDS011;12726;49.148;8.582;2022-10-31T16:29:27;16.45;;;7.03;;
24557;SDS011;12726;49.148;8.582;2022-10-31T16:32:26;16.90;;;7.43;;
24557;SDS011;12726;49.148;8.582;2022-10-31T16:35:21;13.30;;;6.88;;
24557;SDS011;12726;49.148;8.582;2022-10-31T16:38:10;13.77;;;8.32;;
24557;SDS011;12726;49.148;8.582;2022-10-31T16:40:55;13.77;;;8.30;;
24557;SDS011;12726;49.148;8.582;2022-10-31T16:43:40;13.38;;;6.65;;
24557;SDS011;12726;49.148;8.582;2022-10-31T16:46:26;12.88;;;7.22;;
24557;SDS011;12726;49.148;8.582;2022-10-31T16:49:12;8.80;;;6.50;;
24557;SDS011;12726;49.148;8.582;2022-10-31T16:52:00;11.57;;;6.43;;
24557;SDS011;12726;49.148;8.582;2022-10-31T16:54:45;13.60;;;7.35;;
24557;SDS011;12726;49.148;8.582;2022-10-31T16:57:31;17.15;;;8.43;;
24557;SDS011;12726;49.148;8.582;2022-10-31T17:00:17;17.58;;;8.75;;
24557;SDS011;12726;49.148;8.582;2022-10-31T17:03:04;14.48;;;8.35;;
24557;SDS011;12726;49.148;8.582;2022-10-31T17:05:50;20.35;;;10.88;;
24557;SDS011;12726;49.148;8.582;2022-10-31T17:08:36;16.73;;;10.30;;
24557;SDS011;12726;49.148;8.582;2022-10-31T17:11:22;15.98;;;9.13;;
24557;SDS011;12726;49.148;8.582;2022-10-31T17:14:10;17.92;;;8.95;;
24557;SDS011;12726;49.148;8.582;2022-10-31T17:16:55;14.25;;;8.45;;
24557;SDS011;12726;49.148;8.582;2022-10-31T17:19:41;17.92;;;11.25;;